Ravenswood, Illinois
Current Conditions -  °F | °C
As of 10:51 PM on Sunday 21 Dec 2014 (Local Time) from KORD Reporting Station
Overcast Overcast  
Wind Chill: 24°   Ceiling: 24000
Heat Index: 32°   Visibility: 9mi
Dew Point: 27°   Wind: 10mph
Humidity: 82%   Direction: 170°S
Pressure: 30.03"   Gusts: NA
Location:  41.9735°N, 87.7018°W
Report Text: KORD 220451Z 17009KT 9SM FEW035 SCT150 OVC240 00/M03 A3003 RMK AO2 SLP174 T00001028
Loading
Personal Weather Stations






























Interactive Weather Map New forecast layout! Learn more

10-Day Weather Forecast

Advertisements
Track Severe Weather on mobile